sensor_id;sensor_type;location;lat;lon;timestamp;P1;durP1;ratioP1;P2;durP2;ratioP2
1879;SDS011;49285;49.002;8.390;2023-02-19T00:01:16;5.90;;;4.80;;
1879;SDS011;49285;49.002;8.390;2023-02-19T00:03:48;4.60;;;4.10;;
1879;SDS011;49285;49.002;8.390;2023-02-19T00:06:16;5.70;;;4.17;;
1879;SDS011;49285;49.002;8.390;2023-02-19T00:08:42;5.37;;;4.50;;
1879;SDS011;49285;49.002;8.390;2023-02-19T00:11:12;3.90;;;3.50;;
1879;SDS011;49285;49.002;8.390;2023-02-19T00:13:43;4.77;;;3.87;;
1879;SDS011;49285;49.002;8.390;2023-02-19T00:18:46;4.37;;;3.90;;
1879;SDS011;49285;49.002;8.390;2023-02-19T00:21:12;4.10;;;3.70;;
1879;SDS011;49285;49.002;8.390;2023-02-19T00:23:38;4.20;;;3.80;;
1879;SDS011;49285;49.002;8.390;2023-02-19T00:26:08;4.20;;;3.80;;
1879;SDS011;49285;49.002;8.390;2023-02-19T00:28:35;7.40;;;4.60;;
1879;SDS011;49285;49.002;8.390;2023-02-19T00:31:09;5.97;;;4.23;;
1879;SDS011;49285;49.002;8.390;2023-02-19T00:33:47;5.33;;;3.80;;
1879;SDS011;49285;49.002;8.390;2023-02-19T00:36:15;4.03;;;3.53;;
1879;SDS011;49285;49.002;8.390;2023-02-19T00:38:41;3.60;;;3.23;;
1879;SDS011;49285;49.002;8.390;2023-02-19T00:41:08;3.43;;;3.13;;
1879;SDS011;49285;49.002;8.390;2023-02-19T00:46:17;5.50;;;4.47;;
1879;SDS011;49285;49.002;8.390;2023-02-19T00:48:45;3.83;;;3.43;;
1879;SDS011;49285;49.002;8.390;2023-02-19T00:51:11;3.87;;;3.47;;
1879;SDS011;49285;49.002;8.390;2023-02-19T00:53:36;4.43;;;3.50;;
1879;SDS011;49285;49.002;8.390;2023-02-19T00:56:02;4.57;;;3.20;;
1879;SDS011;49285;49.002;8.390;2023-02-19T00:58:28;5.20;;;3.50;;
1879;SDS011;49285;49.002;8.390;2023-02-19T01:00:54;4.33;;;3.33;;
1879;SDS011;49285;49.002;8.390;2023-02-19T01:03:19;7.50;;;4.50;;
1879;SDS011;49285;49.002;8.390;2023-02-19T01:05:46;3.80;;;3.30;;
1879;SDS011;49285;49.002;8.390;2023-02-19T01:08:13;4.93;;;3.80;;
1879;SDS011;49285;49.002;8.390;2023-02-19T01:10:38;7.10;;;4.40;;
1879;SDS011;49285;49.002;8.390;2023-02-19T01:13:04;4.33;;;3.73;;
1879;SDS011;49285;49.002;8.390;2023-02-19T01:15:31;3.63;;;3.33;;
1879;SDS011;49285;49.002;8.390;2023-02-19T01:17:57;3.80;;;3.40;;
1879;SDS011;49285;49.002;8.390;2023-02-19T01:20:23;3.93;;;3.43;;
1879;SDS011;49285;49.002;8.390;2023-02-19T01:22:48;3.83;;;3.43;;
1879;SDS011;49285;49.002;8.390;2023-02-19T01:25:14;6.03;;;4.30;;
1879;SDS011;49285;49.002;8.390;2023-02-19T01:27:39;5.13;;;3.90;;
1879;SDS011;49285;49.002;8.390;2023-02-19T01:30:05;4.27;;;3.87;;
1879;SDS011;49285;49.002;8.390;2023-02-19T01:32:30;5.03;;;4.07;;
1879;SDS011;49285;49.002;8.390;2023-02-19T01:34:56;4.30;;;3.90;;
1879;SDS011;49285;49.002;8.390;2023-02-19T01:37:22;7.13;;;3.50;;
1879;SDS011;49285;49.002;8.390;2023-02-19T01:39:47;4.53;;;3.30;;
1879;SDS011;49285;49.002;8.390;2023-02-19T01:42:13;4.30;;;3.70;;
1879;SDS011;49285;49.002;8.390;2023-02-19T01:47:09;3.63;;;3.23;;
1879;SDS011;49285;49.002;8.390;2023-02-19T01:49:37;3.23;;;2.27;;
1879;SDS011;49285;49.002;8.390;2023-02-19T01:52:20;3.00;;;2.33;;
1879;SDS011;49285;49.002;8.390;2023-02-19T01:54:49;3.23;;;2.50;;
1879;SDS011;49285;49.002;8.390;2023-02-19T01:57:17;3.17;;;2.77;;
1879;SDS011;49285;49.002;8.390;2023-02-19T01:59:45;3.13;;;2.63;;
1879;SDS011;49285;49.002;8.390;2023-02-19T02:02:12;4.03;;;3.03;;
1879;SDS011;49285;49.002;8.390;2023-02-19T02:04:37;3.03;;;2.63;;
1879;SDS011;49285;49.002;8.390;2023-02-19T02:07:03;2.80;;;2.30;;
1879;SDS011;49285;49.002;8.390;2023-02-19T02:09:50;4.03;;;3.20;;
1879;SDS011;49285;49.002;8.390;2023-02-19T02:12:35;3.23;;;2.90;;
1879;SDS011;49285;49.002;8.390;2023-02-19T02:15:00;3.27;;;2.87;;
1879;SDS011;49285;49.002;8.390;2023-02-19T02:17:31;3.80;;;3.27;;
1879;SDS011;49285;49.002;8.390;2023-02-19T02:22:43;3.13;;;2.83;;
1879;SDS011;49285;49.002;8.390;2023-02-19T02:25:35;3.10;;;2.70;;
1879;SDS011;49285;49.002;8.390;2023-02-19T02:31:05;2.80;;;2.30;;
1879;SDS011;49285;49.002;8.390;2023-02-19T02:36:11;2.40;;;2.00;;
1879;SDS011;49285;49.002;8.390;2023-02-19T02:38:41;3.37;;;2.47;;
1879;SDS011;49285;49.002;8.390;2023-02-19T02:41:08;3.13;;;1.90;;
1879;SDS011;49285;49.002;8.390;2023-02-19T02:43:35;3.03;;;2.00;;
1879;SDS011;49285;49.002;8.390;2023-02-19T02:46:01;2.10;;;1.90;;
1879;SDS011;49285;49.002;8.390;2023-02-19T02:48:43;3.30;;;1.90;;
1879;SDS011;49285;49.002;8.390;2023-02-19T02:54:05;2.07;;;1.80;;
1879;SDS011;49285;49.002;8.390;2023-02-19T02:56:53;2.27;;;1.90;;
1879;SDS011;49285;49.002;8.390;2023-02-19T02:59:21;4.20;;;2.33;;
1879;SDS011;49285;49.002;8.390;2023-02-19T03:04:48;2.57;;;1.93;;
1879;SDS011;49285;49.002;8.390;2023-02-19T03:12:56;5.03;;;1.80;;
1879;SDS011;49285;49.002;8.390;2023-02-19T03:15:46;2.07;;;1.67;;
1879;SDS011;49285;49.002;8.390;2023-02-19T03:18:34;3.80;;;2.10;;
1879;SDS011;49285;49.002;8.390;2023-02-19T03:21:21;2.63;;;1.80;;
1879;SDS011;49285;49.002;8.390;2023-02-19T03:23:47;2.27;;;1.70;;
1879;SDS011;49285;49.002;8.390;2023-02-19T03:26:33;2.37;;;1.80;;
1879;SDS011;49285;49.002;8.390;2023-02-19T03:29:02;4.23;;;1.60;;
1879;SDS011;49285;49.002;8.390;2023-02-19T03:31:46;2.80;;;1.90;;
1879;SDS011;49285;49.002;8.390;2023-02-19T03:34:20;2.60;;;1.70;;
1879;SDS011;49285;49.002;8.390;2023-02-19T03:36:52;2.33;;;1.73;;
1879;SDS011;49285;49.002;8.390;2023-02-19T03:39:22;2.40;;;1.80;;
1879;SDS011;49285;49.002;8.390;2023-02-19T03:44:24;2.00;;;1.50;;
1879;SDS011;49285;49.002;8.390;2023-02-19T03:47:07;3.20;;;1.70;;
1879;SDS011;49285;49.002;8.390;2023-02-19T03:55:15;2.03;;;1.70;;
1879;SDS011;49285;49.002;8.390;2023-02-19T03:57:46;2.80;;;1.70;;
1879;SDS011;49285;49.002;8.390;2023-02-19T04:00:17;2.23;;;1.63;;
1879;SDS011;49285;49.002;8.390;2023-02-19T04:02:49;2.37;;;1.80;;
1879;SDS011;49285;49.002;8.390;2023-02-19T04:05:54;2.13;;;1.80;;
1879;SDS011;49285;49.002;8.390;2023-02-19T04:08:25;2.40;;;1.57;;
1879;SDS011;49285;49.002;8.390;2023-02-19T04:10:52;4.20;;;1.83;;
1879;SDS011;49285;49.002;8.390;2023-02-19T04:13:26;1.90;;;1.60;;
1879;SDS011;49285;49.002;8.390;2023-02-19T04:15:57;2.00;;;1.63;;
1879;SDS011;49285;49.002;8.390;2023-02-19T04:18:28;2.30;;;1.77;;
1879;SDS011;49285;49.002;8.390;2023-02-19T04:20:57;3.03;;;1.73;;
1879;SDS011;49285;49.002;8.390;2023-02-19T04:23:26;2.20;;;1.73;;
1879;SDS011;49285;49.002;8.390;2023-02-19T04:25:55;3.73;;;1.80;;
1879;SDS011;49285;49.002;8.390;2023-02-19T04:28:23;3.30;;;1.97;;
1879;SDS011;49285;49.002;8.390;2023-02-19T04:30:49;2.17;;;1.83;;
1879;SDS011;49285;49.002;8.390;2023-02-19T04:33:15;2.50;;;1.70;;
1879;SDS011;49285;49.002;8.390;2023-02-19T04:35:40;2.10;;;1.63;;
1879;SDS011;49285;49.002;8.390;2023-02-19T04:38:06;2.67;;;1.93;;
1879;SDS011;49285;49.002;8.390;2023-02-19T04:40:31;2.27;;;1.63;;
1879;SDS011;49285;49.002;8.390;2023-02-19T04:42:57;2.30;;;1.60;;
1879;SDS011;49285;49.002;8.390;2023-02-19T04:45:23;4.20;;;1.90;;
1879;SDS011;49285;49.002;8.390;2023-02-19T04:47:48;2.60;;;1.83;;
1879;SDS011;49285;49.002;8.390;2023-02-19T04:50:14;2.53;;;2.07;;
1879;SDS011;49285;49.002;8.390;2023-02-19T04:52:39;2.80;;;1.63;;
1879;SDS011;49285;49.002;8.390;2023-02-19T04:55:05;2.60;;;1.80;;
1879;SDS011;49285;49.002;8.390;2023-02-19T04:57:32;2.10;;;1.70;;
1879;SDS011;49285;49.002;8.390;2023-02-19T04:59:58;1.90;;;1.43;;
1879;SDS011;49285;49.002;8.390;2023-02-19T05:02:23;2.57;;;1.80;;
1879;SDS011;49285;49.002;8.390;2023-02-19T05:04:49;2.07;;;1.83;;
1879;SDS011;49285;49.002;8.390;2023-02-19T05:07:15;2.03;;;1.67;;
1879;SDS011;49285;49.002;8.390;2023-02-19T05:09:40;1.80;;;1.30;;
1879;SDS011;49285;49.002;8.390;2023-02-19T05:12:06;2.37;;;1.50;;
1879;SDS011;49285;49.002;8.390;2023-02-19T05:14:31;2.33;;;1.50;;
1879;SDS011;49285;49.002;8.390;2023-02-19T05:16:57;2.00;;;1.57;;
1879;SDS011;49285;49.002;8.390;2023-02-19T05:19:22;2.70;;;1.70;;
1879;SDS011;49285;49.002;8.390;2023-02-19T05:21:48;2.17;;;1.73;;
1879;SDS011;49285;49.002;8.390;2023-02-19T05:24:13;2.23;;;1.73;;
1879;SDS011;49285;49.002;8.390;2023-02-19T05:26:39;2.47;;;1.80;;
1879;SDS011;49285;49.002;8.390;2023-02-19T05:29:04;2.70;;;1.60;;
1879;SDS011;49285;49.002;8.390;2023-02-19T05:31:30;2.60;;;1.60;;
1879;SDS011;49285;49.002;8.390;2023-02-19T05:33:57;1.90;;;1.40;;
1879;SDS011;49285;49.002;8.390;2023-02-19T05:36:23;1.80;;;1.30;;
1879;SDS011;49285;49.002;8.390;2023-02-19T05:38:55;2.57;;;1.50;;
1879;SDS011;49285;49.002;8.390;2023-02-19T05:41:22;2.10;;;1.57;;
1879;SDS011;49285;49.002;8.390;2023-02-19T05:43:50;1.77;;;1.43;;
1879;SDS011;49285;49.002;8.390;2023-02-19T05:46:17;2.03;;;1.67;;
1879;SDS011;49285;49.002;8.390;2023-02-19T05:48:45;1.87;;;1.43;;
1879;SDS011;49285;49.002;8.390;2023-02-19T05:51:12;1.93;;;1.50;;
1879;SDS011;49285;49.002;8.390;2023-02-19T05:53:41;3.30;;;1.50;;
1879;SDS011;49285;49.002;8.390;2023-02-19T05:59:05;1.80;;;1.47;;
1879;SDS011;49285;49.002;8.390;2023-02-19T06:01:41;1.80;;;1.40;;
1879;SDS011;49285;49.002;8.390;2023-02-19T06:04:07;3.30;;;1.90;;
1879;SDS011;49285;49.002;8.390;2023-02-19T06:06:34;1.83;;;1.53;;
1879;SDS011;49285;49.002;8.390;2023-02-19T06:09:01;5.13;;;1.70;;
1879;SDS011;49285;49.002;8.390;2023-02-19T06:11:27;1.77;;;1.40;;
1879;SDS011;49285;49.002;8.390;2023-02-19T06:13:53;2.27;;;1.80;;
1879;SDS011;49285;49.002;8.390;2023-02-19T06:16:19;2.00;;;1.60;;
1879;SDS011;49285;49.002;8.390;2023-02-19T06:18:45;2.47;;;1.77;;
1879;SDS011;49285;49.002;8.390;2023-02-19T06:21:12;2.67;;;2.10;;
1879;SDS011;49285;49.002;8.390;2023-02-19T06:23:39;2.20;;;1.40;;
1879;SDS011;49285;49.002;8.390;2023-02-19T06:28:35;2.40;;;1.60;;
1879;SDS011;49285;49.002;8.390;2023-02-19T06:31:01;2.47;;;1.63;;
1879;SDS011;49285;49.002;8.390;2023-02-19T06:33:27;2.20;;;1.60;;
1879;SDS011;49285;49.002;8.390;2023-02-19T06:35:53;2.20;;;1.60;;
1879;SDS011;49285;49.002;8.390;2023-02-19T06:38:21;1.97;;;1.47;;
1879;SDS011;49285;49.002;8.390;2023-02-19T06:40:47;1.83;;;1.53;;
1879;SDS011;49285;49.002;8.390;2023-02-19T06:43:12;2.00;;;1.60;;
1879;SDS011;49285;49.002;8.390;2023-02-19T06:45:38;1.97;;;1.43;;
1879;SDS011;49285;49.002;8.390;2023-02-19T06:48:03;2.30;;;1.90;;
1879;SDS011;49285;49.002;8.390;2023-02-19T06:50:29;2.10;;;1.53;;
1879;SDS011;49285;49.002;8.390;2023-02-19T06:52:55;1.80;;;1.50;;
1879;SDS011;49285;49.002;8.390;2023-02-19T06:55:20;2.47;;;1.67;;
1879;SDS011;49285;49.002;8.390;2023-02-19T06:57:46;1.93;;;1.40;;
1879;SDS011;49285;49.002;8.390;2023-02-19T07:00:12;1.80;;;1.30;;
1879;SDS011;49285;49.002;8.390;2023-02-19T07:02:37;2.40;;;1.70;;
1879;SDS011;49285;49.002;8.390;2023-02-19T07:05:03;2.37;;;1.73;;
1879;SDS011;49285;49.002;8.390;2023-02-19T07:07:29;2.20;;;1.50;;
1879;SDS011;49285;49.002;8.390;2023-02-19T07:09:54;3.07;;;1.57;;
1879;SDS011;49285;49.002;8.390;2023-02-19T07:12:20;2.33;;;1.67;;
1879;SDS011;49285;49.002;8.390;2023-02-19T07:14:45;2.30;;;1.90;;
1879;SDS011;49285;49.002;8.390;2023-02-19T07:17:12;2.40;;;1.90;;
1879;SDS011;49285;49.002;8.390;2023-02-19T07:19:37;3.20;;;2.37;;
1879;SDS011;49285;49.002;8.390;2023-02-19T07:22:03;4.63;;;1.80;;
1879;SDS011;49285;49.002;8.390;2023-02-19T07:24:28;2.50;;;2.00;;
1879;SDS011;49285;49.002;8.390;2023-02-19T07:26:54;3.27;;;2.10;;
1879;SDS011;49285;49.002;8.390;2023-02-19T07:29:19;2.30;;;2.10;;
1879;SDS011;49285;49.002;8.390;2023-02-19T07:31:45;3.90;;;2.50;;
1879;SDS011;49285;49.002;8.390;2023-02-19T07:34:10;2.70;;;2.20;;
1879;SDS011;49285;49.002;8.390;2023-02-19T07:36:36;2.90;;;2.40;;
1879;SDS011;49285;49.002;8.390;2023-02-19T07:39:02;2.80;;;2.10;;
1879;SDS011;49285;49.002;8.390;2023-02-19T07:41:28;2.53;;;2.00;;
1879;SDS011;49285;49.002;8.390;2023-02-19T07:43:53;3.23;;;2.67;;
1879;SDS011;49285;49.002;8.390;2023-02-19T07:46:19;3.07;;;2.50;;
1879;SDS011;49285;49.002;8.390;2023-02-19T07:48:45;1.93;;;1.60;;
1879;SDS011;49285;49.002;8.390;2023-02-19T07:51:12;3.20;;;1.97;;
1879;SDS011;49285;49.002;8.390;2023-02-19T07:53:43;3.60;;;2.93;;
1879;SDS011;49285;49.002;8.390;2023-02-19T07:56:10;4.30;;;2.73;;
1879;SDS011;49285;49.002;8.390;2023-02-19T07:58:37;3.37;;;2.70;;
1879;SDS011;49285;49.002;8.390;2023-02-19T08:01:15;3.77;;;2.63;;
1879;SDS011;49285;49.002;8.390;2023-02-19T08:03:43;3.20;;;2.50;;
1879;SDS011;49285;49.002;8.390;2023-02-19T08:06:09;3.50;;;2.90;;
1879;SDS011;49285;49.002;8.390;2023-02-19T08:08:36;2.90;;;2.60;;
1879;SDS011;49285;49.002;8.390;2023-02-19T08:11:03;3.67;;;2.87;;
1879;SDS011;49285;49.002;8.390;2023-02-19T08:13:48;2.90;;;2.60;;
1879;SDS011;49285;49.002;8.390;2023-02-19T08:16:15;2.97;;;2.67;;
1879;SDS011;49285;49.002;8.390;2023-02-19T08:18:43;3.13;;;2.53;;
1879;SDS011;49285;49.002;8.390;2023-02-19T08:21:10;4.00;;;3.60;;
1879;SDS011;49285;49.002;8.390;2023-02-19T08:23:36;3.50;;;2.83;;
1879;SDS011;49285;49.002;8.390;2023-02-19T08:26:02;2.93;;;2.50;;
1879;SDS011;49285;49.002;8.390;2023-02-19T08:28:28;2.50;;;2.30;;
1879;SDS011;49285;49.002;8.390;2023-02-19T08:30:57;5.00;;;2.70;;
1879;SDS011;49285;49.002;8.390;2023-02-19T08:33:24;3.73;;;2.67;;
1879;SDS011;49285;49.002;8.390;2023-02-19T08:35:50;2.40;;;2.20;;
1879;SDS011;49285;49.002;8.390;2023-02-19T08:38:15;4.23;;;2.90;;
1879;SDS011;49285;49.002;8.390;2023-02-19T08:40:41;3.40;;;3.03;;
1879;SDS011;49285;49.002;8.390;2023-02-19T08:43:08;4.30;;;3.03;;
1879;SDS011;49285;49.002;8.390;2023-02-19T08:45:38;3.73;;;3.30;;
1879;SDS011;49285;49.002;8.390;2023-02-19T08:48:08;4.10;;;2.87;;
1879;SDS011;49285;49.002;8.390;2023-02-19T08:50:34;3.30;;;2.93;;
1879;SDS011;49285;49.002;8.390;2023-02-19T08:53:01;3.83;;;3.20;;
1879;SDS011;49285;49.002;8.390;2023-02-19T08:55:27;4.40;;;3.40;;
1879;SDS011;49285;49.002;8.390;2023-02-19T08:57:53;4.50;;;3.50;;
1879;SDS011;49285;49.002;8.390;2023-02-19T09:00:19;3.40;;;3.10;;
1879;SDS011;49285;49.002;8.390;2023-02-19T09:02:45;5.83;;;3.33;;
1879;SDS011;49285;49.002;8.390;2023-02-19T09:05:11;3.77;;;2.97;;
1879;SDS011;49285;49.002;8.390;2023-02-19T09:07:37;4.30;;;3.23;;
1879;SDS011;49285;49.002;8.390;2023-02-19T09:10:03;4.43;;;2.60;;
1879;SDS011;49285;49.002;8.390;2023-02-19T09:12:29;3.83;;;2.80;;
1879;SDS011;49285;49.002;8.390;2023-02-19T09:14:55;5.10;;;3.57;;
1879;SDS011;49285;49.002;8.390;2023-02-19T09:17:20;4.00;;;2.87;;
1879;SDS011;49285;49.002;8.390;2023-02-19T09:19:46;3.77;;;2.90;;
1879;SDS011;49285;49.002;8.390;2023-02-19T09:22:11;4.60;;;2.90;;
1879;SDS011;49285;49.002;8.390;2023-02-19T09:24:37;3.33;;;2.73;;
1879;SDS011;49285;49.002;8.390;2023-02-19T09:27:02;6.60;;;3.50;;
1879;SDS011;49285;49.002;8.390;2023-02-19T09:29:28;5.43;;;2.70;;
1879;SDS011;49285;49.002;8.390;2023-02-19T09:31:55;4.73;;;2.97;;
1879;SDS011;49285;49.002;8.390;2023-02-19T09:34:22;5.30;;;3.47;;
1879;SDS011;49285;49.002;8.390;2023-02-19T09:36:48;3.40;;;3.10;;
1879;SDS011;49285;49.002;8.390;2023-02-19T09:39:14;3.83;;;2.90;;
1879;SDS011;49285;49.002;8.390;2023-02-19T09:41:43;3.90;;;3.00;;
1879;SDS011;49285;49.002;8.390;2023-02-19T09:44:13;3.80;;;3.40;;
1879;SDS011;49285;49.002;8.390;2023-02-19T09:47:00;3.33;;;2.50;;
1879;SDS011;49285;49.002;8.390;2023-02-19T09:49:33;3.87;;;2.80;;
1879;SDS011;49285;49.002;8.390;2023-02-19T09:52:11;5.63;;;2.70;;
1879;SDS011;49285;49.002;8.390;2023-02-19T09:54:52;7.17;;;3.40;;
1879;SDS011;49285;49.002;8.390;2023-02-19T09:57:22;4.10;;;2.70;;
1879;SDS011;49285;49.002;8.390;2023-02-19T09:59:51;4.30;;;3.20;;
1879;SDS011;49285;49.002;8.390;2023-02-19T10:02:23;4.83;;;2.90;;
1879;SDS011;49285;49.002;8.390;2023-02-19T10:04:50;4.90;;;3.30;;
1879;SDS011;49285;49.002;8.390;2023-02-19T10:07:17;4.40;;;3.10;;
1879;SDS011;49285;49.002;8.390;2023-02-19T10:10:33;3.70;;;2.73;;
1879;SDS011;49285;49.002;8.390;2023-02-19T10:12:46;7.80;;;3.40;;
1879;SDS011;49285;49.002;8.390;2023-02-19T10:17:49;6.80;;;4.00;;
1879;SDS011;49285;49.002;8.390;2023-02-19T10:20:16;3.47;;;2.87;;
1879;SDS011;49285;49.002;8.390;2023-02-19T10:22:43;5.53;;;3.00;;
1879;SDS011;49285;49.002;8.390;2023-02-19T10:25:13;6.60;;;3.10;;
1879;SDS011;49285;49.002;8.390;2023-02-19T10:27:40;4.73;;;3.30;;
1879;SDS011;49285;49.002;8.390;2023-02-19T10:30:10;5.90;;;3.33;;
1879;SDS011;49285;49.002;8.390;2023-02-19T10:35:27;5.73;;;3.13;;
1879;SDS011;49285;49.002;8.390;2023-02-19T10:37:54;5.57;;;3.10;;
1879;SDS011;49285;49.002;8.390;2023-02-19T10:40:21;5.50;;;3.20;;
1879;SDS011;49285;49.002;8.390;2023-02-19T10:42:50;5.50;;;3.27;;
1879;SDS011;49285;49.002;8.390;2023-02-19T10:45:29;7.57;;;3.80;;
1879;SDS011;49285;49.002;8.390;2023-02-19T10:47:57;7.47;;;3.00;;
1879;SDS011;49285;49.002;8.390;2023-02-19T10:50:29;3.90;;;3.10;;
1879;SDS011;49285;49.002;8.390;2023-02-19T10:52:56;4.10;;;2.80;;
1879;SDS011;49285;49.002;8.390;2023-02-19T10:55:25;4.83;;;3.23;;
1879;SDS011;49285;49.002;8.390;2023-02-19T10:57:55;3.50;;;2.70;;
1879;SDS011;49285;49.002;8.390;2023-02-19T11:00:26;4.40;;;2.83;;
1879;SDS011;49285;49.002;8.390;2023-02-19T11:05:53;5.50;;;3.40;;
1879;SDS011;49285;49.002;8.390;2023-02-19T11:08:27;6.00;;;2.87;;
1879;SDS011;49285;49.002;8.390;2023-02-19T11:10:53;3.70;;;3.00;;
1879;SDS011;49285;49.002;8.390;2023-02-19T11:13:25;7.60;;;3.00;;
1879;SDS011;49285;49.002;8.390;2023-02-19T11:15:56;4.87;;;2.90;;
1879;SDS011;49285;49.002;8.390;2023-02-19T11:18:30;6.17;;;3.50;;
1879;SDS011;49285;49.002;8.390;2023-02-19T11:20:58;6.13;;;2.80;;
1879;SDS011;49285;49.002;8.390;2023-02-19T11:23:36;3.70;;;3.00;;
1879;SDS011;49285;49.002;8.390;2023-02-19T11:26:15;4.50;;;2.90;;
1879;SDS011;49285;49.002;8.390;2023-02-19T11:28:43;4.10;;;3.13;;
1879;SDS011;49285;49.002;8.390;2023-02-19T11:31:13;6.20;;;2.83;;
1879;SDS011;49285;49.002;8.390;2023-02-19T11:33:58;4.67;;;2.63;;
1879;SDS011;49285;49.002;8.390;2023-02-19T11:38:58;4.13;;;2.80;;
1879;SDS011;49285;49.002;8.390;2023-02-19T11:44:27;4.17;;;3.60;;
1879;SDS011;49285;49.002;8.390;2023-02-19T11:52:56;4.30;;;2.80;;
1879;SDS011;49285;49.002;8.390;2023-02-19T11:58:23;4.83;;;2.50;;
1879;SDS011;49285;49.002;8.390;2023-02-19T12:01:07;5.10;;;3.10;;
1879;SDS011;49285;49.002;8.390;2023-02-19T12:06:32;5.50;;;3.27;;
1879;SDS011;49285;49.002;8.390;2023-02-19T12:09:29;6.60;;;3.90;;
1879;SDS011;49285;49.002;8.390;2023-02-19T12:12:01;3.90;;;3.13;;
1879;SDS011;49285;49.002;8.390;2023-02-19T12:15:01;4.60;;;3.57;;
1879;SDS011;49285;49.002;8.390;2023-02-19T12:21:08;6.10;;;3.60;;
1879;SDS011;49285;49.002;8.390;2023-02-19T12:26:42;7.07;;;3.17;;
1879;SDS011;49285;49.002;8.390;2023-02-19T12:35:03;6.20;;;3.10;;
1879;SDS011;49285;49.002;8.390;2023-02-19T12:45:41;5.90;;;3.10;;
1879;SDS011;49285;49.002;8.390;2023-02-19T12:50:59;5.97;;;3.50;;
1879;SDS011;49285;49.002;8.390;2023-02-19T12:53:42;5.13;;;3.20;;
1879;SDS011;49285;49.002;8.390;2023-02-19T12:56:29;8.07;;;3.20;;
1879;SDS011;49285;49.002;8.390;2023-02-19T12:59:32;3.50;;;3.00;;
1879;SDS011;49285;49.002;8.390;2023-02-19T13:02:17;5.03;;;3.10;;
1879;SDS011;49285;49.002;8.390;2023-02-19T13:04:59;5.30;;;2.77;;
1879;SDS011;49285;49.002;8.390;2023-02-19T13:10:32;5.97;;;2.97;;
1879;SDS011;49285;49.002;8.390;2023-02-19T13:13:08;5.17;;;4.07;;
1879;SDS011;49285;49.002;8.390;2023-02-19T13:15:50;5.50;;;2.50;;
1879;SDS011;49285;49.002;8.390;2023-02-19T13:18:20;2.97;;;2.37;;
1879;SDS011;49285;49.002;8.390;2023-02-19T13:20:50;7.37;;;4.30;;
1879;SDS011;49285;49.002;8.390;2023-02-19T13:23:29;3.67;;;2.70;;
1879;SDS011;49285;49.002;8.390;2023-02-19T13:38:00;5.40;;;3.07;;
1879;SDS011;49285;49.002;8.390;2023-02-19T13:40:30;4.63;;;2.60;;
1879;SDS011;49285;49.002;8.390;2023-02-19T13:42:57;4.30;;;3.03;;
1879;SDS011;49285;49.002;8.390;2023-02-19T13:45:38;4.77;;;2.80;;
1879;SDS011;49285;49.002;8.390;2023-02-19T13:50:48;5.00;;;3.00;;
1879;SDS011;49285;49.002;8.390;2023-02-19T13:58:58;3.87;;;2.70;;
1879;SDS011;49285;49.002;8.390;2023-02-19T14:14:44;5.87;;;3.23;;
1879;SDS011;49285;49.002;8.390;2023-02-19T14:19:58;4.80;;;2.93;;
1879;SDS011;49285;49.002;8.390;2023-02-19T14:30:31;6.83;;;3.60;;
1879;SDS011;49285;49.002;8.390;2023-02-19T14:32:59;5.20;;;3.13;;
1879;SDS011;49285;49.002;8.390;2023-02-19T14:35:47;7.50;;;4.10;;
1879;SDS011;49285;49.002;8.390;2023-02-19T14:38:23;3.47;;;2.70;;
1879;SDS011;49285;49.002;8.390;2023-02-19T14:40:52;3.23;;;2.33;;
1879;SDS011;49285;49.002;8.390;2023-02-19T14:43:20;10.40;;;3.37;;
1879;SDS011;49285;49.002;8.390;2023-02-19T14:45:49;4.17;;;2.57;;
1879;SDS011;49285;49.002;8.390;2023-02-19T14:48:22;5.50;;;2.97;;
1879;SDS011;49285;49.002;8.390;2023-02-19T14:51:01;4.03;;;2.03;;
1879;SDS011;49285;49.002;8.390;2023-02-19T14:53:30;4.70;;;2.30;;
1879;SDS011;49285;49.002;8.390;2023-02-19T14:56:14;4.73;;;2.33;;
1879;SDS011;49285;49.002;8.390;2023-02-19T14:58:57;5.07;;;2.20;;
1879;SDS011;49285;49.002;8.390;2023-02-19T15:01:35;7.50;;;3.03;;
1879;SDS011;49285;49.002;8.390;2023-02-19T15:04:01;3.43;;;2.77;;
1879;SDS011;49285;49.002;8.390;2023-02-19T15:06:27;4.80;;;2.70;;
1879;SDS011;49285;49.002;8.390;2023-02-19T15:08:57;4.70;;;2.63;;
1879;SDS011;49285;49.002;8.390;2023-02-19T15:11:26;8.63;;;3.27;;
1879;SDS011;49285;49.002;8.390;2023-02-19T15:14:03;8.17;;;3.50;;
1879;SDS011;49285;49.002;8.390;2023-02-19T15:16:31;4.10;;;2.63;;
1879;SDS011;49285;49.002;8.390;2023-02-19T15:18:59;6.40;;;3.53;;
1879;SDS011;49285;49.002;8.390;2023-02-19T15:21:32;5.40;;;2.73;;
1879;SDS011;49285;49.002;8.390;2023-02-19T15:24:01;4.47;;;2.97;;
1879;SDS011;49285;49.002;8.390;2023-02-19T15:26:36;4.13;;;3.10;;
1879;SDS011;49285;49.002;8.390;2023-02-19T15:29:14;3.23;;;2.53;;
1879;SDS011;49285;49.002;8.390;2023-02-19T15:31:57;5.87;;;3.30;;
1879;SDS011;49285;49.002;8.390;2023-02-19T15:34:25;5.90;;;3.70;;
1879;SDS011;49285;49.002;8.390;2023-02-19T15:36:59;6.33;;;3.43;;
1879;SDS011;49285;49.002;8.390;2023-02-19T15:39:35;6.10;;;3.17;;
1879;SDS011;49285;49.002;8.390;2023-02-19T15:42:07;4.70;;;3.20;;
1879;SDS011;49285;49.002;8.390;2023-02-19T15:50:17;7.73;;;3.40;;
1879;SDS011;49285;49.002;8.390;2023-02-19T15:55:26;7.13;;;4.50;;
1879;SDS011;49285;49.002;8.390;2023-02-19T15:58:12;3.87;;;3.47;;
1879;SDS011;49285;49.002;8.390;2023-02-19T16:00:53;6.47;;;3.50;;
1879;SDS011;49285;49.002;8.390;2023-02-19T16:03:27;10.03;;;3.20;;
1879;SDS011;49285;49.002;8.390;2023-02-19T16:06:05;4.63;;;3.37;;
1879;SDS011;49285;49.002;8.390;2023-02-19T16:08:36;3.00;;;2.60;;
1879;SDS011;49285;49.002;8.390;2023-02-19T16:11:04;6.63;;;3.30;;
1879;SDS011;49285;49.002;8.390;2023-02-19T16:13:47;4.30;;;2.93;;
1879;SDS011;49285;49.002;8.390;2023-02-19T16:16:34;5.77;;;2.47;;
1879;SDS011;49285;49.002;8.390;2023-02-19T16:19:02;9.70;;;3.50;;
1879;SDS011;49285;49.002;8.390;2023-02-19T16:21:27;7.10;;;3.00;;
1879;SDS011;49285;49.002;8.390;2023-02-19T16:23:57;6.47;;;3.70;;
1879;SDS011;49285;49.002;8.390;2023-02-19T16:26:29;6.90;;;3.90;;
1879;SDS011;49285;49.002;8.390;2023-02-19T16:29:03;4.17;;;3.20;;
1879;SDS011;49285;49.002;8.390;2023-02-19T16:31:28;6.83;;;2.87;;
1879;SDS011;49285;49.002;8.390;2023-02-19T16:33:54;10.83;;;4.57;;
1879;SDS011;49285;49.002;8.390;2023-02-19T16:46:50;10.33;;;3.70;;
1879;SDS011;49285;49.002;8.390;2023-02-19T16:49:17;6.90;;;3.57;;
1879;SDS011;49285;49.002;8.390;2023-02-19T16:51:43;6.33;;;3.27;;
1879;SDS011;49285;49.002;8.390;2023-02-19T16:54:11;5.80;;;2.77;;
1879;SDS011;49285;49.002;8.390;2023-02-19T16:56:37;3.87;;;2.90;;
1879;SDS011;49285;49.002;8.390;2023-02-19T16:59:03;6.40;;;3.10;;
1879;SDS011;49285;49.002;8.390;2023-02-19T17:01:29;6.80;;;3.63;;
1879;SDS011;49285;49.002;8.390;2023-02-19T17:03:57;8.00;;;3.30;;
1879;SDS011;49285;49.002;8.390;2023-02-19T17:06:26;6.57;;;2.70;;
1879;SDS011;49285;49.002;8.390;2023-02-19T17:08:52;7.70;;;3.30;;
1879;SDS011;49285;49.002;8.390;2023-02-19T17:11:18;6.13;;;2.87;;
1879;SDS011;49285;49.002;8.390;2023-02-19T17:13:44;5.70;;;3.07;;
1879;SDS011;49285;49.002;8.390;2023-02-19T17:16:14;6.90;;;2.87;;
1879;SDS011;49285;49.002;8.390;2023-02-19T17:18:42;4.73;;;2.80;;
1879;SDS011;49285;49.002;8.390;2023-02-19T17:21:11;4.73;;;3.00;;
1879;SDS011;49285;49.002;8.390;2023-02-19T17:23:47;4.33;;;2.80;;
1879;SDS011;49285;49.002;8.390;2023-02-19T17:26:14;5.63;;;3.10;;
1879;SDS011;49285;49.002;8.390;2023-02-19T17:28:41;6.40;;;3.27;;
1879;SDS011;49285;49.002;8.390;2023-02-19T17:31:07;4.97;;;3.17;;
1879;SDS011;49285;49.002;8.390;2023-02-19T17:33:34;5.00;;;2.70;;
1879;SDS011;49285;49.002;8.390;2023-02-19T17:36:00;4.70;;;2.53;;
1879;SDS011;49285;49.002;8.390;2023-02-19T17:38:26;5.63;;;2.87;;
1879;SDS011;49285;49.002;8.390;2023-02-19T17:40:52;5.97;;;2.90;;
1879;SDS011;49285;49.002;8.390;2023-02-19T17:43:18;4.10;;;2.90;;
1879;SDS011;49285;49.002;8.390;2023-02-19T17:45:43;6.23;;;2.93;;
1879;SDS011;49285;49.002;8.390;2023-02-19T17:48:12;7.03;;;3.30;;
1879;SDS011;49285;49.002;8.390;2023-02-19T17:50:38;6.77;;;3.60;;
1879;SDS011;49285;49.002;8.390;2023-02-19T17:53:04;11.30;;;3.90;;